Terminal Aerodrome Forecast
Issued by NWS King Salmon, AK

Home | Current Version | Previous Version | Text Only | Print | Product List | Glossary On
Versions: 1 2 3 4 5 6 7 8 9 10 11 12 13 14 15 16 17 18 19 20 21 22 23 24 25 26 27 28 29 30 31 32 33 34
000
FTAK31 PANC 230205 AAA
TAFAKN
TAF AMD
PAKN 230205Z 2302/2324 24013G20KT P6SM VCSH SCT030 BKN060
      TEMPO 2302/2304 BKN025
     FM231200 18011KT P6SM -RA BKN015 OVC025=

USA.gov is the U.S. government's official web portal to all federal, state and local government web resources and services.